createdAt,value
2023-04-13T00:00:35.258Z,87.05
2023-04-13T00:03:02.356Z,86.92
2023-04-13T00:05:29.070Z,85.50
2023-04-13T00:07:56.190Z,84.72
2023-04-13T00:10:23.978Z,84.87
2023-04-13T00:12:50.642Z,84.54
2023-04-13T00:15:21.442Z,84.73
2023-04-13T00:17:48.095Z,84.08
2023-04-13T00:20:14.804Z,83.90
2023-04-13T00:22:43.088Z,84.00
2023-04-13T00:25:11.761Z,83.94
2023-04-13T00:27:42.453Z,84.18
2023-04-13T00:30:11.456Z,83.76
2023-04-13T00:32:40.742Z,83.08
2023-04-13T00:35:08.541Z,84.01
2023-04-13T00:37:35.279Z,83.97
2023-04-13T00:40:02.212Z,82.77
2023-04-13T00:42:28.756Z,82.27
2023-04-13T00:44:55.399Z,82.55
2023-04-13T00:47:32.204Z,81.99
2023-04-13T00:50:01.269Z,81.93
2023-04-13T00:52:29.009Z,81.73
2023-04-13T00:54:57.694Z,81.04
2023-04-13T00:57:25.349Z,81.15
2023-04-13T00:59:52.769Z,81.25
2023-04-13T01:02:26.451Z,81.64
2023-04-13T01:04:55.734Z,81.13
2023-04-13T01:07:41.385Z,81.46
2023-04-13T01:10:32.394Z,81.43
2023-04-13T01:13:14.163Z,80.53
2023-04-13T01:16:10.448Z,80.81
2023-04-13T01:18:41.762Z,80.69
2023-04-13T01:21:14.540Z,79.49
2023-04-13T01:24:08.678Z,80.09
2023-04-13T01:26:43.848Z,80.36
2023-04-13T01:29:10.674Z,80.49
2023-04-13T01:31:37.822Z,80.76
2023-04-13T01:34:04.846Z,80.73
2023-04-13T01:36:33.624Z,81.21
2023-04-13T01:39:00.911Z,80.90
2023-04-13T01:41:29.949Z,81.70
2023-04-13T01:43:56.944Z,80.89
2023-04-13T01:46:30.957Z,80.33
2023-04-13T01:49:19.563Z,81.25
2023-04-13T01:52:08.358Z,81.35
2023-04-13T01:54:37.308Z,80.39
2023-04-13T01:57:04.324Z,80.60
2023-04-13T01:59:33.430Z,80.22
2023-04-13T02:02:00.031Z,79.63
2023-04-13T02:04:26.591Z,79.81
2023-04-13T02:06:53.275Z,79.21
2023-04-13T02:09:28.295Z,79.50
2023-04-13T02:11:55.352Z,78.32
2023-04-13T02:14:22.295Z,78.48
2023-04-13T02:16:49.171Z,77.48
2023-04-13T02:19:15.868Z,78.05
2023-04-13T02:21:42.294Z,77.09
2023-04-13T02:24:09.123Z,76.52
2023-04-13T02:26:37.572Z,77.47
2023-04-13T02:29:04.083Z,76.90
2023-04-13T02:31:31.726Z,75.97
2023-04-13T02:33:58.603Z,76.52
2023-04-13T02:36:25.387Z,76.42
2023-04-13T02:38:56.299Z,75.31
2023-04-13T02:41:28.530Z,76.11
2023-04-13T02:43:56.811Z,75.22
2023-04-13T02:46:25.807Z,74.73
2023-04-13T02:48:58.233Z,74.60
2023-04-13T02:51:27.956Z,75.66
2023-04-13T02:53:57.749Z,74.99
2023-04-13T02:56:25.387Z,75.21
2023-04-13T02:58:55.156Z,75.50
2023-04-13T03:01:24.969Z,76.29
2023-04-13T03:03:53.001Z,77.41
2023-04-13T03:06:24.151Z,78.16
2023-04-13T03:08:55.215Z,78.36
2023-04-13T03:11:23.575Z,79.03
2023-04-13T03:14:13.078Z,80.28
2023-04-13T03:16:40.292Z,80.52
2023-04-13T03:19:07.370Z,81.14
2023-04-13T03:21:36.073Z,81.03
2023-04-13T03:24:08.658Z,82.11
2023-04-13T03:26:36.483Z,82.40
2023-04-13T03:29:06.984Z,82.69
2023-04-13T03:31:38.938Z,82.51
2023-04-13T03:34:06.354Z,82.89
2023-04-13T03:36:32.838Z,83.42
2023-04-13T03:39:00.870Z,83.36
2023-04-13T03:41:32.639Z,84.51
2023-04-13T03:43:59.268Z,84.11
2023-04-13T03:46:27.238Z,84.40
2023-04-13T03:48:56.729Z,83.87
2023-04-13T03:51:27.757Z,84.42
2023-04-13T03:53:54.994Z,84.46
2023-04-13T03:56:24.688Z,85.20
2023-04-13T03:58:51.464Z,84.85
2023-04-13T04:01:23.438Z,85.58
2023-04-13T04:03:50.881Z,85.03
2023-04-13T04:06:18.122Z,85.05
2023-04-13T04:08:51.961Z,84.73
2023-04-13T04:11:41.397Z,85.37
2023-04-13T04:14:09.596Z,86.12
2023-04-13T04:16:37.432Z,85.83
2023-04-13T04:19:09.853Z,85.39
2023-04-13T04:21:36.314Z,85.27
2023-04-13T04:24:08.777Z,85.44
2023-04-13T04:26:38.110Z,85.85
2023-04-13T04:29:07.052Z,85.36
2023-04-13T04:31:37.544Z,85.39
2023-04-13T04:34:10.898Z,85.21
2023-04-13T04:36:41.735Z,86.20
2023-04-13T04:39:09.859Z,85.88
2023-04-13T04:41:44.724Z,86.37
2023-04-13T04:44:11.684Z,86.62
2023-04-13T04:46:41.629Z,86.72
2023-04-13T04:49:11.815Z,86.66
2023-04-13T04:51:39.177Z,87.27
2023-04-13T04:54:07.299Z,87.23
2023-04-13T04:56:33.905Z,86.17
2023-04-13T04:59:00.691Z,86.80
2023-04-13T05:01:38.844Z,86.41
2023-04-13T05:04:10.325Z,86.75
2023-04-13T05:06:41.135Z,86.98
2023-04-13T05:09:09.905Z,85.93
2023-04-13T05:11:39.493Z,86.05
2023-04-13T05:14:08.730Z,86.66
2023-04-13T05:16:36.189Z,85.84
2023-04-13T05:19:12.550Z,85.78
2023-04-13T05:21:53.724Z,85.28
2023-04-13T05:24:21.653Z,84.91
2023-04-13T05:26:48.991Z,84.67
2023-04-13T05:29:21.128Z,84.15
2023-04-13T05:31:48.513Z,84.78
2023-04-13T05:34:16.466Z,83.83
2023-04-13T05:36:55.611Z,84.04
2023-04-13T05:39:22.079Z,83.70
2023-04-13T05:41:48.537Z,84.05
2023-04-13T05:44:16.310Z,83.13
2023-04-13T05:46:42.890Z,82.76
2023-04-13T05:49:10.590Z,83.40
2023-04-13T05:51:38.211Z,83.02
2023-04-13T05:54:04.926Z,82.57
2023-04-13T05:56:34.147Z,82.57
2023-04-13T05:59:01.125Z,81.68
2023-04-13T06:01:29.594Z,82.05
2023-04-13T06:03:56.543Z,82.47
2023-04-13T06:06:24.852Z,81.72
2023-04-13T06:08:52.971Z,81.70
2023-04-13T06:11:20.851Z,81.22
2023-04-13T06:13:47.257Z,80.80
2023-04-13T06:16:13.715Z,79.87
2023-04-13T06:18:40.279Z,79.45
2023-04-13T06:21:07.078Z,78.98
2023-04-13T06:23:34.233Z,79.08
2023-04-13T06:26:06.058Z,78.59
2023-04-13T06:28:45.010Z,79.54
2023-04-13T06:31:13.666Z,78.56
2023-04-13T06:33:41.560Z,79.19
2023-04-13T06:36:09.243Z,78.08
2023-04-13T06:38:36.290Z,78.55
2023-04-13T06:41:07.434Z,79.53
2023-04-13T06:43:37.682Z,78.58
2023-04-13T06:46:15.930Z,78.25
2023-04-13T06:48:46.558Z,78.85
2023-04-13T06:51:14.696Z,77.82
2023-04-13T06:53:42.079Z,77.83
2023-04-13T06:56:08.694Z,78.40
2023-04-13T06:58:36.645Z,77.59
2023-04-13T07:01:04.341Z,77.09
2023-04-13T07:03:34.060Z,76.77
2023-04-13T07:06:02.572Z,77.02
2023-04-13T07:08:29.230Z,77.22
2023-04-13T07:10:55.762Z,77.00
2023-04-13T07:13:30.529Z,76.79
2023-04-13T07:15:57.023Z,77.39
2023-04-13T07:18:23.535Z,76.85
2023-04-13T07:20:49.954Z,76.94
2023-04-13T07:23:19.309Z,76.69
2023-04-13T07:25:45.874Z,76.60
2023-04-13T07:28:20.745Z,76.58
2023-04-13T07:30:50.507Z,76.29
2023-04-13T07:33:17.315Z,76.15
2023-04-13T07:35:44.065Z,76.19
2023-04-13T07:38:12.062Z,76.14
2023-04-13T07:40:38.686Z,74.77
2023-04-13T07:43:10.206Z,74.50
2023-04-13T07:45:39.510Z,75.29
2023-04-13T07:48:06.994Z,75.45
2023-04-13T07:50:42.552Z,74.91
2023-04-13T07:53:12.732Z,74.32
2023-04-13T07:55:40.562Z,73.86
2023-04-13T07:58:07.820Z,73.76
2023-04-13T08:00:34.309Z,74.16
2023-04-13T08:03:03.715Z,73.82
2023-04-13T08:05:32.063Z,72.75
2023-04-13T08:07:58.590Z,72.37
2023-04-13T08:10:25.144Z,71.53
2023-04-13T08:12:53.675Z,71.78
2023-04-13T08:15:21.594Z,71.27
2023-04-13T08:17:48.971Z,70.84
2023-04-13T08:20:17.361Z,70.48
2023-04-13T08:22:45.886Z,70.72
2023-04-13T08:25:12.296Z,70.19
2023-04-13T08:27:38.756Z,69.44
2023-04-13T08:30:07.459Z,68.98
2023-04-13T08:32:44.064Z,68.28
2023-04-13T08:35:11.635Z,69.21
2023-04-13T08:37:39.828Z,68.80
2023-04-13T08:40:11.867Z,68.66
2023-04-13T08:42:39.837Z,67.48
2023-04-13T08:45:07.619Z,68.06
2023-04-13T08:47:34.696Z,68.55
2023-04-13T08:50:02.830Z,68.33
2023-04-13T08:52:42.521Z,68.96
2023-04-13T08:55:09.266Z,68.86
2023-04-13T08:57:38.392Z,68.70
2023-04-13T09:00:12.616Z,68.98
2023-04-13T09:02:49.322Z,68.47
2023-04-13T09:05:28.651Z,68.20
2023-04-13T09:08:04.199Z,67.21
2023-04-13T09:10:30.865Z,66.73
2023-04-13T09:12:57.374Z,67.37
2023-04-13T09:15:24.381Z,65.75
2023-04-13T09:18:17.249Z,66.27
2023-04-13T09:20:59.863Z,66.24
2023-04-13T09:23:26.609Z,66.27
2023-04-13T09:26:04.818Z,66.33
2023-04-13T09:28:31.492Z,66.05
2023-04-13T09:31:05.442Z,66.11
2023-04-13T09:33:47.088Z,66.32
2023-04-13T09:36:15.408Z,64.96
2023-04-13T09:38:50.458Z,66.00
2023-04-13T09:41:16.972Z,65.71
2023-04-13T09:43:43.408Z,64.85
2023-04-13T09:46:14.149Z,63.94
2023-04-13T09:48:58.822Z,62.77
2023-04-13T09:51:27.452Z,62.01
2023-04-13T09:53:54.528Z,61.81
2023-04-13T09:56:21.204Z,60.51
2023-04-13T09:58:47.841Z,59.90
2023-04-13T10:01:17.224Z,59.71
2023-04-13T10:03:44.479Z,59.86
2023-04-13T10:06:11.042Z,59.47
2023-04-13T10:08:39.186Z,59.88
2023-04-13T10:11:13.265Z,60.32
2023-04-13T10:13:50.962Z,59.76
2023-04-13T10:16:36.501Z,59.72
2023-04-13T10:19:17.879Z,60.01
2023-04-13T10:21:47.731Z,60.00
2023-04-13T10:24:15.285Z,60.60
2023-04-13T10:26:44.059Z,60.26
2023-04-13T10:29:13.379Z,59.26
2023-04-13T10:31:41.961Z,58.95
2023-04-13T10:34:09.713Z,59.36
2023-04-13T10:36:44.212Z,59.39
2023-04-13T10:39:11.253Z,58.26
2023-04-13T10:41:38.513Z,57.92
2023-04-13T10:44:07.758Z,56.40
2023-04-13T10:46:35.641Z,55.93
2023-04-13T10:49:03.724Z,56.68
2023-04-13T10:51:43.420Z,56.30
2023-04-13T10:54:12.387Z,56.21
2023-04-13T10:56:40.080Z,56.29
2023-04-13T10:59:07.002Z,57.37
2023-04-13T11:01:35.715Z,57.82
2023-04-13T11:04:06.475Z,58.98
2023-04-13T11:06:39.338Z,61.40
2023-04-13T11:09:07.066Z,62.68
2023-04-13T11:11:36.545Z,64.05
2023-04-13T11:14:03.670Z,65.21
2023-04-13T11:16:30.217Z,65.74
2023-04-13T11:19:04.091Z,66.28
2023-04-13T11:21:31.756Z,66.87
2023-04-13T11:24:02.224Z,67.34
2023-04-13T11:26:38.223Z,67.96
2023-04-13T11:29:05.140Z,68.39
2023-04-13T11:31:41.920Z,68.85
2023-04-13T11:34:11.022Z,69.16
2023-04-13T11:36:40.383Z,69.26
2023-04-13T11:39:10.867Z,69.96
2023-04-13T11:41:41.556Z,69.56
2023-04-13T11:44:08.045Z,68.55
2023-04-13T11:46:34.573Z,67.44
2023-04-13T11:49:01.765Z,67.14
2023-04-13T11:51:28.735Z,66.63
2023-04-13T11:53:55.408Z,66.65
2023-04-13T11:56:22.099Z,66.17
2023-04-13T11:58:51.430Z,65.61
2023-04-13T12:01:25.023Z,64.50
2023-04-13T12:04:01.472Z,63.33
2023-04-13T12:06:35.297Z,62.79
2023-04-13T12:09:10.092Z,62.79
2023-04-13T12:11:48.599Z,62.02
2023-04-13T12:14:45.968Z,62.10
2023-04-13T12:19:46.234Z,62.79
2023-04-13T12:22:14.660Z,62.83
2023-04-13T12:24:42.788Z,63.53
2023-04-13T12:27:18.558Z,64.28
2023-04-13T12:29:45.905Z,64.55
2023-04-13T12:32:17.089Z,64.52
2023-04-13T12:34:44.721Z,64.36
2023-04-13T12:37:11.659Z,64.71
2023-04-13T12:39:38.223Z,64.66
2023-04-13T12:42:05.242Z,64.96
2023-04-13T12:44:33.750Z,64.81
2023-04-13T12:47:01.076Z,64.56
2023-04-13T12:49:27.638Z,63.23
2023-04-13T12:51:54.080Z,62.90
2023-04-13T12:54:20.667Z,62.25
2023-04-13T12:56:47.564Z,61.06
2023-04-13T12:59:14.075Z,60.55
2023-04-13T13:01:40.770Z,60.16
2023-04-13T13:04:07.422Z,59.63
2023-04-13T13:06:34.271Z,59.62
2023-04-13T13:09:01.233Z,59.07
2023-04-13T13:11:28.258Z,59.75
2023-04-13T13:13:54.895Z,60.47
2023-04-13T13:16:21.388Z,59.04
2023-04-13T13:18:51.340Z,59.09
2023-04-13T13:21:18.692Z,59.72
2023-04-13T13:23:45.550Z,60.01
2023-04-13T13:28:42.372Z,59.07
2023-04-13T13:31:09.078Z,60.22
2023-04-13T13:33:36.283Z,61.15
2023-04-13T13:36:02.736Z,61.35
2023-04-13T13:38:29.278Z,61.20
2023-04-13T13:40:56.031Z,61.60
2023-04-13T13:43:22.570Z,61.62
2023-04-13T13:45:49.070Z,61.94
2023-04-13T13:48:16.592Z,62.10
2023-04-13T13:50:50.887Z,62.61
2023-04-13T13:53:17.904Z,63.50
2023-04-13T13:55:45.110Z,63.94
2023-04-13T13:58:11.604Z,65.08
2023-04-13T14:00:38.217Z,65.44
2023-04-13T14:03:04.696Z,66.34
2023-04-13T14:05:31.974Z,66.47
2023-04-13T14:07:58.435Z,66.89
2023-04-13T14:10:25.152Z,68.12
2023-04-13T14:12:52.667Z,68.14
2023-04-13T14:15:19.476Z,69.25
2023-04-13T14:17:55.417Z,69.76
2023-04-13T14:20:28.824Z,69.30
2023-04-13T14:22:56.881Z,70.53
2023-04-13T14:25:23.579Z,70.41
2023-04-13T14:27:50.356Z,71.09
2023-04-13T14:30:19.432Z,71.12
2023-04-13T14:32:49.384Z,70.76
2023-04-13T14:35:16.167Z,70.77
2023-04-13T14:37:42.634Z,71.13
2023-04-13T14:40:14.379Z,71.83
2023-04-13T14:42:41.150Z,71.52
2023-04-13T14:45:11.173Z,71.86
2023-04-13T14:47:38.783Z,72.64
2023-04-13T14:50:05.993Z,71.75
2023-04-13T14:52:32.409Z,71.56
2023-04-13T14:54:58.834Z,72.64
2023-04-13T14:57:26.968Z,71.35
2023-04-13T14:59:55.684Z,71.90
2023-04-13T15:02:23.045Z,71.71
2023-04-13T15:04:49.649Z,71.49
2023-04-13T15:07:16.229Z,70.61
2023-04-13T15:09:42.607Z,71.22
2023-04-13T15:12:12.657Z,70.46
2023-04-13T15:14:40.570Z,70.19
2023-04-13T15:17:08.333Z,70.20
2023-04-13T15:19:34.773Z,69.84
2023-04-13T15:22:01.181Z,69.39
2023-04-13T15:24:27.623Z,68.88
2023-04-13T15:26:54.220Z,69.07
2023-04-13T15:29:21.019Z,68.70
2023-04-13T15:31:47.545Z,69.35
2023-04-13T15:34:14.030Z,68.79
2023-04-13T15:36:40.479Z,69.29
2023-04-13T15:39:06.898Z,68.63
2023-04-13T15:41:33.318Z,69.04
2023-04-13T15:44:00.327Z,68.34
2023-04-13T15:46:27.575Z,68.94
2023-04-13T15:48:54.834Z,68.50
2023-04-13T15:51:21.938Z,69.06
2023-04-13T15:53:48.598Z,68.83
2023-04-13T15:56:15.065Z,69.88
2023-04-13T15:58:41.704Z,69.77
2023-04-13T16:01:10.071Z,70.16
2023-04-13T16:03:36.990Z,70.29
2023-04-13T16:06:03.746Z,69.75
2023-04-13T16:08:30.206Z,69.65
2023-04-13T16:10:56.979Z,70.00
2023-04-13T16:13:23.525Z,70.73
2023-04-13T16:15:55.579Z,71.18
2023-04-13T16:18:32.233Z,72.22
2023-04-13T16:21:02.238Z,72.33
2023-04-13T16:23:29.316Z,72.50
2023-04-13T16:25:55.911Z,73.04
2023-04-13T16:28:22.395Z,72.17
2023-04-13T16:30:49.408Z,71.07
2023-04-13T16:33:15.998Z,70.54
2023-04-13T16:35:42.466Z,69.53
2023-04-13T16:38:08.902Z,69.49
2023-04-13T16:40:35.893Z,69.74
2023-04-13T16:43:04.060Z,70.28
2023-04-13T16:45:30.542Z,70.16
2023-04-13T16:47:56.994Z,70.03
2023-04-13T16:50:28.475Z,70.33
2023-04-13T16:52:56.495Z,70.37
2023-04-13T16:55:23.054Z,71.38
2023-04-13T16:57:50.683Z,71.72
2023-04-13T17:00:18.040Z,72.20
2023-04-13T17:02:44.679Z,71.31
2023-04-13T17:05:12.443Z,71.70
2023-04-13T17:07:40.472Z,72.46
2023-04-13T17:10:07.754Z,72.28
2023-04-13T17:12:34.899Z,72.43
2023-04-13T17:15:01.320Z,73.39
2023-04-13T17:17:28.453Z,74.22
2023-04-13T17:19:54.988Z,73.19
2023-04-13T17:22:22.388Z,74.36
2023-04-13T17:24:49.374Z,74.21
2023-04-13T17:27:16.465Z,75.32
2023-04-13T17:29:42.924Z,75.60
2023-04-13T17:32:09.518Z,75.96
2023-04-13T17:34:36.003Z,75.48
2023-04-13T17:37:02.402Z,76.17
2023-04-13T17:39:29.169Z,76.61
2023-04-13T17:41:56.239Z,76.52
2023-04-13T17:44:22.676Z,76.61
2023-04-13T17:46:50.196Z,76.64
2023-04-13T17:49:16.643Z,77.31
2023-04-13T17:51:49.799Z,76.88
2023-04-13T17:54:16.279Z,77.76
2023-04-13T17:56:42.870Z,77.79
2023-04-13T17:59:13.127Z,77.90
2023-04-13T18:01:42.048Z,77.93
2023-04-13T18:04:13.418Z,77.76
2023-04-13T18:06:40.345Z,77.45
2023-04-13T18:09:08.805Z,77.83
2023-04-13T18:11:35.654Z,77.88
2023-04-13T18:14:02.991Z,78.18
2023-04-13T18:16:31.703Z,79.02
2023-04-13T18:19:01.674Z,78.73
2023-04-13T18:21:28.078Z,79.36
2023-04-13T18:23:54.531Z,79.54
2023-04-13T18:26:22.535Z,79.67
2023-04-13T18:28:49.062Z,79.97
2023-04-13T18:31:15.600Z,80.68
2023-04-13T18:33:42.002Z,80.94
2023-04-13T18:36:08.382Z,81.67
2023-04-13T18:38:35.011Z,81.37
2023-04-13T18:41:01.617Z,81.78
2023-04-13T18:43:28.020Z,82.92
2023-04-13T18:45:54.464Z,82.27
2023-04-13T18:48:20.949Z,82.88
2023-04-13T18:50:48.269Z,83.12
2023-04-13T18:53:14.757Z,84.29
2023-04-13T18:55:41.172Z,84.01
2023-04-13T18:58:07.713Z,84.05
2023-04-13T19:00:34.144Z,83.83
2023-04-13T19:03:00.672Z,84.61
2023-04-13T19:05:27.766Z,84.72
2023-04-13T19:07:58.501Z,84.92
2023-04-13T19:10:26.498Z,84.56
2023-04-13T19:12:52.941Z,85.32
2023-04-13T19:15:19.903Z,84.70
2023-04-13T19:17:47.244Z,85.10
2023-04-13T19:20:14.394Z,86.12
2023-04-13T19:22:40.899Z,85.61
2023-04-13T19:25:13.951Z,86.13
2023-04-13T19:27:45.496Z,85.68
2023-04-13T19:30:13.686Z,86.06
2023-04-13T19:32:41.937Z,85.99
2023-04-13T19:35:10.093Z,85.82
2023-04-13T19:37:37.915Z,85.53
2023-04-13T19:40:09.662Z,85.49
2023-04-13T19:42:37.059Z,85.06
2023-04-13T19:45:04.253Z,84.95
2023-04-13T19:47:32.024Z,84.91
2023-04-13T19:49:58.530Z,84.89
2023-04-13T19:52:25.270Z,84.81
2023-04-13T19:54:51.987Z,85.91
2023-04-13T19:57:18.687Z,85.71
2023-04-13T19:59:45.236Z,84.97
2023-04-13T20:02:11.709Z,85.56
2023-04-13T20:04:38.622Z,86.08
2023-04-13T20:07:05.608Z,85.52
2023-04-13T20:09:33.206Z,85.39
2023-04-13T20:11:59.632Z,85.44
2023-04-13T20:14:26.356Z,86.32
2023-04-13T20:16:52.936Z,86.23
2023-04-13T20:19:20.227Z,86.22
2023-04-13T20:21:46.768Z,86.71
2023-04-13T20:24:13.249Z,86.98
2023-04-13T20:26:40.038Z,87.37
2023-04-13T20:29:06.698Z,86.42
2023-04-13T20:31:33.333Z,87.71
2023-04-13T20:34:00.316Z,88.06
2023-04-13T20:36:27.169Z,86.86
2023-04-13T20:38:54.982Z,87.47
2023-04-13T20:41:21.882Z,87.96
2023-04-13T20:43:50.634Z,88.09
2023-04-13T20:46:17.129Z,87.83
2023-04-13T20:51:13.287Z,88.40
2023-04-13T20:53:39.709Z,88.31
2023-04-13T20:56:09.214Z,89.03
2023-04-13T20:58:37.318Z,88.16
2023-04-13T21:01:04.602Z,88.79
2023-04-13T21:03:32.003Z,88.09
2023-04-13T21:05:59.370Z,89.05
2023-04-13T21:08:27.266Z,88.77
2023-04-13T21:10:53.693Z,87.81
2023-04-13T21:13:20.295Z,88.09
2023-04-13T21:15:46.958Z,88.69
2023-04-13T21:18:13.423Z,88.84
2023-04-13T21:20:42.053Z,88.77
2023-04-13T21:23:08.505Z,88.62
2023-04-13T21:25:36.356Z,88.41
2023-04-13T21:28:03.110Z,88.65
2023-04-13T21:30:29.631Z,88.32
2023-04-13T21:32:56.136Z,88.47
2023-04-13T21:35:22.653Z,88.93
2023-04-13T21:37:49.042Z,88.45
2023-04-13T21:40:16.295Z,87.76
2023-04-13T21:42:42.710Z,88.12
2023-04-13T21:45:09.504Z,88.78
2023-04-13T21:47:35.985Z,88.64
2023-04-13T21:50:02.397Z,88.92
2023-04-13T21:52:29.013Z,88.78
2023-04-13T21:54:55.827Z,88.68
2023-04-13T21:57:22.270Z,89.25
2023-04-13T21:59:48.671Z,88.75
2023-04-13T22:02:15.846Z,89.04
2023-04-13T22:04:42.326Z,89.37
2023-04-13T22:07:08.794Z,88.51
2023-04-13T22:09:35.707Z,89.21
2023-04-13T22:12:02.211Z,88.71
2023-04-13T22:14:28.694Z,88.35
2023-04-13T22:16:56.151Z,89.46
2023-04-13T22:19:22.619Z,88.74
2023-04-13T22:21:49.019Z,88.57
2023-04-13T22:24:16.055Z,88.23
2023-04-13T22:26:42.534Z,88.33
2023-04-13T22:29:09.036Z,88.83
2023-04-13T22:31:35.788Z,88.87
2023-04-13T22:34:02.224Z,89.20
2023-04-13T22:36:28.666Z,88.59
2023-04-13T22:38:55.325Z,88.94
2023-04-13T22:41:21.880Z,88.27
2023-04-13T22:43:48.274Z,88.36
2023-04-13T22:46:14.903Z,88.02
2023-04-13T22:48:41.361Z,88.36
2023-04-13T22:51:07.822Z,87.64
2023-04-13T22:53:34.250Z,87.43
2023-04-13T22:56:01.013Z,87.83
2023-04-13T22:58:27.777Z,88.28
2023-04-13T23:00:54.343Z,87.88
2023-04-13T23:03:21.428Z,87.65
2023-04-13T23:05:48.131Z,88.31
2023-04-13T23:08:14.563Z,88.48
2023-04-13T23:10:41.114Z,87.88
2023-04-13T23:13:07.676Z,88.05
2023-04-13T23:15:34.267Z,87.80
2023-04-13T23:18:02.517Z,87.73
2023-04-13T23:20:29.385Z,88.36
2023-04-13T23:22:55.878Z,87.88
2023-04-13T23:25:22.337Z,87.94
2023-04-13T23:27:48.727Z,88.00
2023-04-13T23:30:16.092Z,87.47
2023-04-13T23:32:42.537Z,88.09
2023-04-13T23:35:09.169Z,88.38
2023-04-13T23:37:35.577Z,87.19
2023-04-13T23:40:02.059Z,88.01
2023-04-13T23:42:28.588Z,88.01
2023-04-13T23:44:55.306Z,87.45
2023-04-13T23:47:22.240Z,88.05
2023-04-13T23:49:48.807Z,87.36
2023-04-13T23:52:15.219Z,87.75
2023-04-13T23:54:41.673Z,87.79
2023-04-13T23:57:09.676Z,87.41
2023-04-13T23:59:36.091Z,87.68
